sensor_id;sensor_type;location;lat;lon;timestamp;P1;durP1;ratioP1;P2;durP2;ratioP2
19814;SDS011;10067;53.092;8.800;2023-06-19T00:02:24;8.90;;;7.25;;
19814;SDS011;10067;53.092;8.800;2023-06-19T00:04:50;9.57;;;7.75;;
19814;SDS011;10067;53.092;8.800;2023-06-19T00:07:16;7.60;;;6.90;;
19814;SDS011;10067;53.092;8.800;2023-06-19T00:09:45;8.85;;;7.63;;
19814;SDS011;10067;53.092;8.800;2023-06-19T00:12:11;9.60;;;7.00;;
19814;SDS011;10067;53.092;8.800;2023-06-19T00:14:38;11.43;;;7.30;;
19814;SDS011;10067;53.092;8.800;2023-06-19T00:17:04;9.23;;;7.10;;
19814;SDS011;10067;53.092;8.800;2023-06-19T00:19:30;10.45;;;7.20;;
19814;SDS011;10067;53.092;8.800;2023-06-19T00:22:01;11.32;;;7.20;;
19814;SDS011;10067;53.092;8.800;2023-06-19T00:24:28;8.05;;;6.80;;
19814;SDS011;10067;53.092;8.800;2023-06-19T00:26:55;11.50;;;6.97;;
19814;SDS011;10067;53.092;8.800;2023-06-19T00:29:27;8.75;;;7.18;;
19814;SDS011;10067;53.092;8.800;2023-06-19T00:31:54;8.50;;;6.78;;
19814;SDS011;10067;53.092;8.800;2023-06-19T00:34:20;9.15;;;6.78;;
19814;SDS011;10067;53.092;8.800;2023-06-19T00:36:49;8.98;;;6.80;;
19814;SDS011;10067;53.092;8.800;2023-06-19T00:39:15;7.32;;;6.47;;
19814;SDS011;10067;53.092;8.800;2023-06-19T00:41:42;8.77;;;6.35;;
19814;SDS011;10067;53.092;8.800;2023-06-19T00:44:10;7.88;;;6.38;;
19814;SDS011;10067;53.092;8.800;2023-06-19T00:46:37;12.35;;;7.63;;
19814;SDS011;10067;53.092;8.800;2023-06-19T00:49:03;8.43;;;7.38;;
19814;SDS011;10067;53.092;8.800;2023-06-19T00:51:30;9.05;;;6.50;;
19814;SDS011;10067;53.092;8.800;2023-06-19T00:53:56;7.78;;;6.30;;
19814;SDS011;10067;53.092;8.800;2023-06-19T00:56:22;7.50;;;6.70;;
19814;SDS011;10067;53.092;8.800;2023-06-19T00:58:49;8.38;;;7.50;;
19814;SDS011;10067;53.092;8.800;2023-06-19T01:01:17;7.90;;;7.05;;
19814;SDS011;10067;53.092;8.800;2023-06-19T01:03:44;8.30;;;7.18;;
19814;SDS011;10067;53.092;8.800;2023-06-19T01:06:13;8.52;;;6.72;;
19814;SDS011;10067;53.092;8.800;2023-06-19T01:08:43;9.52;;;7.53;;
19814;SDS011;10067;53.092;8.800;2023-06-19T01:11:11;9.82;;;7.72;;
19814;SDS011;10067;53.092;8.800;2023-06-19T01:13:41;9.10;;;7.25;;
19814;SDS011;10067;53.092;8.800;2023-06-19T01:16:10;8.20;;;7.40;;
19814;SDS011;10067;53.092;8.800;2023-06-19T01:18:38;10.15;;;7.70;;
19814;SDS011;10067;53.092;8.800;2023-06-19T01:21:09;8.35;;;7.40;;
19814;SDS011;10067;53.092;8.800;2023-06-19T01:23:37;10.35;;;7.97;;
19814;SDS011;10067;53.092;8.800;2023-06-19T01:26:03;8.40;;;7.50;;
19814;SDS011;10067;53.092;8.800;2023-06-19T01:28:29;10.00;;;8.30;;
19814;SDS011;10067;53.092;8.800;2023-06-19T01:30:56;9.18;;;7.80;;
19814;SDS011;10067;53.092;8.800;2023-06-19T01:33:26;8.35;;;7.55;;
19814;SDS011;10067;53.092;8.800;2023-06-19T01:35:53;9.25;;;7.90;;
19814;SDS011;10067;53.092;8.800;2023-06-19T01:38:21;10.00;;;7.75;;
19814;SDS011;10067;53.092;8.800;2023-06-19T01:40:51;9.75;;;8.18;;
19814;SDS011;10067;53.092;8.800;2023-06-19T01:43:18;9.38;;;7.10;;
19814;SDS011;10067;53.092;8.800;2023-06-19T01:45:45;8.68;;;7.43;;
19814;SDS011;10067;53.092;8.800;2023-06-19T01:48:11;10.77;;;8.13;;
19814;SDS011;10067;53.092;8.800;2023-06-19T01:50:38;9.18;;;7.57;;
19814;SDS011;10067;53.092;8.800;2023-06-19T01:53:05;10.10;;;7.82;;
19814;SDS011;10067;53.092;8.800;2023-06-19T01:55:31;8.52;;;7.63;;
19814;SDS011;10067;53.092;8.800;2023-06-19T01:57:59;9.73;;;7.68;;
19814;SDS011;10067;53.092;8.800;2023-06-19T02:00:25;9.48;;;8.52;;
19814;SDS011;10067;53.092;8.800;2023-06-19T02:02:52;8.48;;;7.50;;
19814;SDS011;10067;53.092;8.800;2023-06-19T02:05:18;8.63;;;7.72;;
19814;SDS011;10067;53.092;8.800;2023-06-19T02:07:44;13.68;;;7.18;;
19814;SDS011;10067;53.092;8.800;2023-06-19T02:10:11;9.25;;;7.45;;
19814;SDS011;10067;53.092;8.800;2023-06-19T02:12:37;8.55;;;7.47;;
19814;SDS011;10067;53.092;8.800;2023-06-19T02:15:06;14.27;;;8.38;;
19814;SDS011;10067;53.092;8.800;2023-06-19T02:17:32;9.18;;;7.15;;
19814;SDS011;10067;53.092;8.800;2023-06-19T02:19:59;11.13;;;7.32;;
19814;SDS011;10067;53.092;8.800;2023-06-19T02:22:25;8.30;;;7.50;;
19814;SDS011;10067;53.092;8.800;2023-06-19T02:24:52;11.48;;;7.45;;
19814;SDS011;10067;53.092;8.800;2023-06-19T02:27:18;9.40;;;7.47;;
19814;SDS011;10067;53.092;8.800;2023-06-19T02:29:45;9.35;;;6.75;;
19814;SDS011;10067;53.092;8.800;2023-06-19T02:32:12;11.05;;;7.75;;
19814;SDS011;10067;53.092;8.800;2023-06-19T02:34:39;8.60;;;7.18;;
19814;SDS011;10067;53.092;8.800;2023-06-19T02:37:05;11.18;;;7.60;;
19814;SDS011;10067;53.092;8.800;2023-06-19T02:39:33;9.27;;;7.18;;
19814;SDS011;10067;53.092;8.800;2023-06-19T02:41:59;8.50;;;7.40;;
19814;SDS011;10067;53.092;8.800;2023-06-19T02:44:25;8.50;;;7.60;;
19814;SDS011;10067;53.092;8.800;2023-06-19T02:46:52;8.20;;;7.40;;
19814;SDS011;10067;53.092;8.800;2023-06-19T02:49:19;9.52;;;7.10;;
19814;SDS011;10067;53.092;8.800;2023-06-19T02:51:46;8.63;;;7.68;;
19814;SDS011;10067;53.092;8.800;2023-06-19T02:54:12;10.52;;;7.63;;
19814;SDS011;10067;53.092;8.800;2023-06-19T02:56:39;10.52;;;8.68;;
19814;SDS011;10067;53.092;8.800;2023-06-19T02:59:05;9.02;;;8.13;;
19814;SDS011;10067;53.092;8.800;2023-06-19T03:01:32;10.13;;;7.95;;
19814;SDS011;10067;53.092;8.800;2023-06-19T03:03:59;8.93;;;8.05;;
19814;SDS011;10067;53.092;8.800;2023-06-19T03:06:26;9.05;;;7.35;;
19814;SDS011;10067;53.092;8.800;2023-06-19T03:08:53;8.50;;;7.70;;
19814;SDS011;10067;53.092;8.800;2023-06-19T03:11:19;10.40;;;8.35;;
19814;SDS011;10067;53.092;8.800;2023-06-19T03:13:47;9.35;;;8.27;;
19814;SDS011;10067;53.092;8.800;2023-06-19T03:16:13;8.70;;;7.78;;
19814;SDS011;10067;53.092;8.800;2023-06-19T03:18:40;10.95;;;8.48;;
19814;SDS011;10067;53.092;8.800;2023-06-19T03:21:09;10.45;;;8.02;;
19814;SDS011;10067;53.092;8.800;2023-06-19T03:23:37;9.30;;;7.95;;
19814;SDS011;10067;53.092;8.800;2023-06-19T03:26:04;11.88;;;8.10;;
19814;SDS011;10067;53.092;8.800;2023-06-19T03:28:30;9.98;;;7.38;;
19814;SDS011;10067;53.092;8.800;2023-06-19T03:30:56;10.68;;;8.00;;
19814;SDS011;10067;53.092;8.800;2023-06-19T03:33:23;8.75;;;7.57;;
19814;SDS011;10067;53.092;8.800;2023-06-19T03:35:49;9.68;;;8.57;;
19814;SDS011;10067;53.092;8.800;2023-06-19T03:38:15;13.48;;;8.40;;
19814;SDS011;10067;53.092;8.800;2023-06-19T03:40:43;9.68;;;8.65;;
19814;SDS011;10067;53.092;8.800;2023-06-19T03:43:10;10.43;;;8.45;;
19814;SDS011;10067;53.092;8.800;2023-06-19T03:45:36;11.13;;;8.10;;
19814;SDS011;10067;53.092;8.800;2023-06-19T03:48:03;9.10;;;8.20;;
19814;SDS011;10067;53.092;8.800;2023-06-19T03:50:30;12.13;;;8.20;;
19814;SDS011;10067;53.092;8.800;2023-06-19T03:52:56;9.98;;;8.73;;
19814;SDS011;10067;53.092;8.800;2023-06-19T03:55:22;9.02;;;8.13;;
19814;SDS011;10067;53.092;8.800;2023-06-19T03:57:50;9.23;;;8.30;;
19814;SDS011;10067;53.092;8.800;2023-06-19T04:00:20;9.32;;;8.43;;
19814;SDS011;10067;53.092;8.800;2023-06-19T04:02:47;10.93;;;8.10;;
19814;SDS011;10067;53.092;8.800;2023-06-19T04:05:14;11.88;;;8.93;;
19814;SDS011;10067;53.092;8.800;2023-06-19T04:07:41;9.38;;;8.48;;
19814;SDS011;10067;53.092;8.800;2023-06-19T04:10:07;10.40;;;8.63;;
19814;SDS011;10067;53.092;8.800;2023-06-19T04:12:35;9.70;;;8.38;;
19814;SDS011;10067;53.092;8.800;2023-06-19T04:15:03;11.48;;;8.90;;
19814;SDS011;10067;53.092;8.800;2023-06-19T04:17:29;10.18;;;8.68;;
19814;SDS011;10067;53.092;8.800;2023-06-19T04:19:56;12.50;;;9.43;;
19814;SDS011;10067;53.092;8.800;2023-06-19T04:22:22;10.68;;;8.65;;
19814;SDS011;10067;53.092;8.800;2023-06-19T04:24:48;10.32;;;9.20;;
19814;SDS011;10067;53.092;8.800;2023-06-19T04:27:15;13.23;;;9.23;;
19814;SDS011;10067;53.092;8.800;2023-06-19T04:29:41;9.85;;;8.90;;
19814;SDS011;10067;53.092;8.800;2023-06-19T04:32:09;12.45;;;9.30;;
19814;SDS011;10067;53.092;8.800;2023-06-19T04:34:37;10.80;;;8.50;;
19814;SDS011;10067;53.092;8.800;2023-06-19T04:37:07;12.73;;;8.65;;
19814;SDS011;10067;53.092;8.800;2023-06-19T04:39:35;11.20;;;8.93;;
19814;SDS011;10067;53.092;8.800;2023-06-19T04:42:01;9.48;;;8.48;;
19814;SDS011;10067;53.092;8.800;2023-06-19T04:44:28;10.18;;;9.18;;
19814;SDS011;10067;53.092;8.800;2023-06-19T04:46:58;13.00;;;9.38;;
19814;SDS011;10067;53.092;8.800;2023-06-19T04:49:30;12.45;;;9.57;;
19814;SDS011;10067;53.092;8.800;2023-06-19T04:51:56;10.52;;;9.27;;
19814;SDS011;10067;53.092;8.800;2023-06-19T04:54:23;10.02;;;8.90;;
19814;SDS011;10067;53.092;8.800;2023-06-19T04:56:51;11.45;;;8.88;;
19814;SDS011;10067;53.092;8.800;2023-06-19T04:59:18;10.43;;;9.07;;
19814;SDS011;10067;53.092;8.800;2023-06-19T05:01:44;12.70;;;9.18;;
19814;SDS011;10067;53.092;8.800;2023-06-19T05:04:11;10.30;;;9.13;;
19814;SDS011;10067;53.092;8.800;2023-06-19T05:06:39;11.50;;;9.55;;
19814;SDS011;10067;53.092;8.800;2023-06-19T05:09:05;11.93;;;9.43;;
19814;SDS011;10067;53.092;8.800;2023-06-19T05:11:32;12.18;;;8.77;;
19814;SDS011;10067;53.092;8.800;2023-06-19T05:14:01;11.82;;;8.90;;
19814;SDS011;10067;53.092;8.800;2023-06-19T05:16:27;12.07;;;8.55;;
19814;SDS011;10067;53.092;8.800;2023-06-19T05:18:54;10.43;;;9.02;;
19814;SDS011;10067;53.092;8.800;2023-06-19T05:21:20;9.82;;;8.68;;
19814;SDS011;10067;53.092;8.800;2023-06-19T05:23:48;9.38;;;8.05;;
19814;SDS011;10067;53.092;8.800;2023-06-19T05:26:15;11.98;;;8.50;;
19814;SDS011;10067;53.092;8.800;2023-06-19T05:28:42;12.20;;;8.63;;
19814;SDS011;10067;53.092;8.800;2023-06-19T05:31:08;10.23;;;8.55;;
19814;SDS011;10067;53.092;8.800;2023-06-19T05:33:34;12.57;;;8.25;;
19814;SDS011;10067;53.092;8.800;2023-06-19T05:36:01;10.57;;;8.07;;
19814;SDS011;10067;53.092;8.800;2023-06-19T05:38:27;11.43;;;7.97;;
19814;SDS011;10067;53.092;8.800;2023-06-19T05:40:56;10.45;;;8.30;;
19814;SDS011;10067;53.092;8.800;2023-06-19T05:43:23;13.05;;;8.38;;
19814;SDS011;10067;53.092;8.800;2023-06-19T05:45:50;12.63;;;8.93;;
19814;SDS011;10067;53.092;8.800;2023-06-19T05:48:16;10.70;;;8.82;;
19814;SDS011;10067;53.092;8.800;2023-06-19T05:50:42;10.07;;;8.30;;
19814;SDS011;10067;53.092;8.800;2023-06-19T05:53:09;13.00;;;9.52;;
19814;SDS011;10067;53.092;8.800;2023-06-19T05:55:35;10.10;;;8.88;;
19814;SDS011;10067;53.092;8.800;2023-06-19T05:58:03;11.30;;;10.00;;
19814;SDS011;10067;53.092;8.800;2023-06-19T06:00:30;10.40;;;9.30;;
19814;SDS011;10067;53.092;8.800;2023-06-19T06:02:57;14.32;;;9.60;;
19814;SDS011;10067;53.092;8.800;2023-06-19T06:05:24;12.05;;;8.80;;
19814;SDS011;10067;53.092;8.800;2023-06-19T06:07:51;12.35;;;9.38;;
19814;SDS011;10067;53.092;8.800;2023-06-19T06:10:18;11.57;;;8.77;;
19814;SDS011;10067;53.092;8.800;2023-06-19T06:12:45;12.45;;;9.15;;
19814;SDS011;10067;53.092;8.800;2023-06-19T06:15:12;14.60;;;9.43;;
19814;SDS011;10067;53.092;8.800;2023-06-19T06:17:39;12.73;;;9.10;;
19814;SDS011;10067;53.092;8.800;2023-06-19T06:20:06;11.52;;;9.00;;
19814;SDS011;10067;53.092;8.800;2023-06-19T06:22:36;11.40;;;9.02;;
19814;SDS011;10067;53.092;8.800;2023-06-19T06:25:02;12.38;;;9.85;;
19814;SDS011;10067;53.092;8.800;2023-06-19T06:27:29;12.38;;;9.18;;
19814;SDS011;10067;53.092;8.800;2023-06-19T06:29:56;15.68;;;9.38;;
19814;SDS011;10067;53.092;8.800;2023-06-19T06:32:23;13.35;;;9.15;;
19814;SDS011;10067;53.092;8.800;2023-06-19T06:34:51;11.98;;;9.07;;
19814;SDS011;10067;53.092;8.800;2023-06-19T06:37:17;15.82;;;8.95;;
19814;SDS011;10067;53.092;8.800;2023-06-19T06:39:47;12.73;;;8.95;;
19814;SDS011;10067;53.092;8.800;2023-06-19T06:42:14;14.50;;;8.98;;
19814;SDS011;10067;53.092;8.800;2023-06-19T06:44:40;11.43;;;9.02;;
19814;SDS011;10067;53.092;8.800;2023-06-19T06:47:07;12.45;;;9.90;;
19814;SDS011;10067;53.092;8.800;2023-06-19T06:49:35;10.85;;;8.90;;
19814;SDS011;10067;53.092;8.800;2023-06-19T06:52:02;9.55;;;8.55;;
19814;SDS011;10067;53.092;8.800;2023-06-19T06:54:28;15.68;;;8.63;;
19814;SDS011;10067;53.092;8.800;2023-06-19T06:56:55;10.52;;;8.75;;
19814;SDS011;10067;53.092;8.800;2023-06-19T06:59:23;10.40;;;8.07;;
19814;SDS011;10067;53.092;8.800;2023-06-19T07:01:49;10.32;;;8.63;;
19814;SDS011;10067;53.092;8.800;2023-06-19T07:04:16;10.85;;;8.80;;
19814;SDS011;10067;53.092;8.800;2023-06-19T07:06:43;10.70;;;8.77;;
19814;SDS011;10067;53.092;8.800;2023-06-19T07:09:10;12.38;;;8.20;;
19814;SDS011;10067;53.092;8.800;2023-06-19T07:11:36;13.65;;;8.43;;
19814;SDS011;10067;53.092;8.800;2023-06-19T07:14:03;9.43;;;8.43;;
19814;SDS011;10067;53.092;8.800;2023-06-19T07:16:29;11.05;;;8.85;;
19814;SDS011;10067;53.092;8.800;2023-06-19T07:18:55;10.45;;;8.48;;
19814;SDS011;10067;53.092;8.800;2023-06-19T07:21:22;11.50;;;8.25;;
19814;SDS011;10067;53.092;8.800;2023-06-19T07:23:49;13.57;;;8.57;;
19814;SDS011;10067;53.092;8.800;2023-06-19T07:26:16;9.50;;;7.82;;
19814;SDS011;10067;53.092;8.800;2023-06-19T07:28:42;12.82;;;8.50;;
19814;SDS011;10067;53.092;8.800;2023-06-19T07:31:08;16.38;;;8.00;;
19814;SDS011;10067;53.092;8.800;2023-06-19T07:33:35;10.45;;;8.30;;
19814;SDS011;10067;53.092;8.800;2023-06-19T07:36:01;11.27;;;7.88;;
19814;SDS011;10067;53.092;8.800;2023-06-19T07:38:28;11.18;;;7.72;;
19814;SDS011;10067;53.092;8.800;2023-06-19T07:40:56;9.07;;;7.22;;
19814;SDS011;10067;53.092;8.800;2023-06-19T07:43:22;10.82;;;6.53;;
19814;SDS011;10067;53.092;8.800;2023-06-19T07:45:49;11.80;;;7.03;;
19814;SDS011;10067;53.092;8.800;2023-06-19T07:48:15;12.75;;;7.35;;
19814;SDS011;10067;53.092;8.800;2023-06-19T07:50:42;8.50;;;6.68;;
19814;SDS011;10067;53.092;8.800;2023-06-19T07:53:08;9.93;;;7.65;;
19814;SDS011;10067;53.092;8.800;2023-06-19T07:55:34;9.05;;;6.90;;
19814;SDS011;10067;53.092;8.800;2023-06-19T07:58:02;9.80;;;7.50;;
19814;SDS011;10067;53.092;8.800;2023-06-19T08:00:28;9.65;;;6.60;;
19814;SDS011;10067;53.092;8.800;2023-06-19T08:02:55;8.13;;;6.55;;
19814;SDS011;10067;53.092;8.800;2023-06-19T08:05:22;8.10;;;6.88;;
19814;SDS011;10067;53.092;8.800;2023-06-19T08:07:48;8.63;;;6.72;;
19814;SDS011;10067;53.092;8.800;2023-06-19T08:10:14;6.85;;;6.18;;
19814;SDS011;10067;53.092;8.800;2023-06-19T08:12:41;12.80;;;6.80;;
19814;SDS011;10067;53.092;8.800;2023-06-19T08:15:09;10.95;;;6.47;;
19814;SDS011;10067;53.092;8.800;2023-06-19T08:17:36;9.75;;;6.38;;
19814;SDS011;10067;53.092;8.800;2023-06-19T08:20:02;9.45;;;6.82;;
19814;SDS011;10067;53.092;8.800;2023-06-19T08:22:30;7.93;;;6.45;;
19814;SDS011;10067;53.092;8.800;2023-06-19T08:24:56;8.68;;;6.65;;
19814;SDS011;10067;53.092;8.800;2023-06-19T08:27:22;9.75;;;6.65;;
19814;SDS011;10067;53.092;8.800;2023-06-19T08:29:49;8.30;;;7.32;;
19814;SDS011;10067;53.092;8.800;2023-06-19T08:32:17;11.25;;;7.07;;
19814;SDS011;10067;53.092;8.800;2023-06-19T08:34:43;12.82;;;6.95;;
19814;SDS011;10067;53.092;8.800;2023-06-19T08:37:09;10.60;;;7.45;;
19814;SDS011;10067;53.092;8.800;2023-06-19T08:39:36;15.48;;;7.85;;
19814;SDS011;10067;53.092;8.800;2023-06-19T08:42:04;11.13;;;7.88;;
19814;SDS011;10067;53.092;8.800;2023-06-19T08:44:30;9.77;;;7.75;;
19814;SDS011;10067;53.092;8.800;2023-06-19T08:46:57;9.70;;;7.32;;
19814;SDS011;10067;53.092;8.800;2023-06-19T08:49:25;10.40;;;7.45;;
19814;SDS011;10067;53.092;8.800;2023-06-19T08:51:51;9.27;;;6.85;;
19814;SDS011;10067;53.092;8.800;2023-06-19T08:54:17;10.15;;;7.30;;
19814;SDS011;10067;53.092;8.800;2023-06-19T08:56:44;11.68;;;6.93;;
19814;SDS011;10067;53.092;8.800;2023-06-19T08:59:13;8.57;;;6.68;;
19814;SDS011;10067;53.092;8.800;2023-06-19T09:01:45;9.07;;;6.68;;
19814;SDS011;10067;53.092;8.800;2023-06-19T09:04:17;12.50;;;7.00;;
19814;SDS011;10067;53.092;8.800;2023-06-19T09:06:51;10.85;;;6.95;;
19814;SDS011;10067;53.092;8.800;2023-06-19T09:09:18;9.80;;;6.22;;
19814;SDS011;10067;53.092;8.800;2023-06-19T09:11:56;9.18;;;6.78;;
19814;SDS011;10067;53.092;8.800;2023-06-19T09:14:23;11.20;;;6.18;;
19814;SDS011;10067;53.092;8.800;2023-06-19T09:16:50;11.38;;;6.15;;
19814;SDS011;10067;53.092;8.800;2023-06-19T09:19:19;8.13;;;5.75;;
19814;SDS011;10067;53.092;8.800;2023-06-19T09:21:46;7.53;;;6.35;;
19814;SDS011;10067;53.092;8.800;2023-06-19T09:24:15;8.35;;;6.25;;
19814;SDS011;10067;53.092;8.800;2023-06-19T09:26:41;8.40;;;6.50;;
19814;SDS011;10067;53.092;8.800;2023-06-19T09:29:11;8.20;;;6.50;;
19814;SDS011;10067;53.092;8.800;2023-06-19T09:31:38;8.05;;;5.90;;
19814;SDS011;10067;53.092;8.800;2023-06-19T09:34:06;10.75;;;7.78;;
19814;SDS011;10067;53.092;8.800;2023-06-19T09:36:32;11.45;;;5.85;;
19814;SDS011;10067;53.092;8.800;2023-06-19T09:38:59;8.57;;;5.00;;
19814;SDS011;10067;53.092;8.800;2023-06-19T09:41:28;9.20;;;4.93;;
19814;SDS011;10067;53.092;8.800;2023-06-19T09:43:55;11.82;;;5.28;;
19814;SDS011;10067;53.092;8.800;2023-06-19T09:46:23;6.75;;;5.05;;
19814;SDS011;10067;53.092;8.800;2023-06-19T09:48:52;6.43;;;4.53;;
19814;SDS011;10067;53.092;8.800;2023-06-19T09:51:20;8.52;;;4.68;;
19814;SDS011;10067;53.092;8.800;2023-06-19T09:53:48;5.97;;;4.93;;
19814;SDS011;10067;53.092;8.800;2023-06-19T09:56:15;5.57;;;4.97;;
19814;SDS011;10067;53.092;8.800;2023-06-19T09:58:43;6.45;;;4.78;;
19814;SDS011;10067;53.092;8.800;2023-06-19T10:01:10;8.10;;;4.53;;
19814;SDS011;10067;53.092;8.800;2023-06-19T10:03:37;13.60;;;4.57;;
19814;SDS011;10067;53.092;8.800;2023-06-19T10:06:05;5.10;;;4.60;;
19814;SDS011;10067;53.092;8.800;2023-06-19T10:08:38;8.65;;;4.63;;
19814;SDS011;10067;53.092;8.800;2023-06-19T10:11:04;8.85;;;4.60;;
19814;SDS011;10067;53.092;8.800;2023-06-19T10:13:31;5.70;;;4.57;;
19814;SDS011;10067;53.092;8.800;2023-06-19T10:15:59;5.85;;;5.07;;
19814;SDS011;10067;53.092;8.800;2023-06-19T10:18:26;8.18;;;4.60;;
19814;SDS011;10067;53.092;8.800;2023-06-19T10:20:53;6.50;;;4.82;;
19814;SDS011;10067;53.092;8.800;2023-06-19T10:23:20;10.27;;;5.55;;
19814;SDS011;10067;53.092;8.800;2023-06-19T10:25:48;7.80;;;5.70;;
19814;SDS011;10067;53.092;8.800;2023-06-19T10:28:18;8.20;;;5.53;;
19814;SDS011;10067;53.092;8.800;2023-06-19T10:30:44;8.45;;;4.72;;
19814;SDS011;10067;53.092;8.800;2023-06-19T10:33:12;11.90;;;5.82;;
19814;SDS011;10067;53.092;8.800;2023-06-19T10:35:39;6.75;;;5.40;;
19814;SDS011;10067;53.092;8.800;2023-06-19T10:38:05;9.10;;;6.03;;
19814;SDS011;10067;53.092;8.800;2023-06-19T10:40:32;8.10;;;6.43;;
19814;SDS011;10067;53.092;8.800;2023-06-19T10:42:58;9.32;;;6.30;;
19814;SDS011;10067;53.092;8.800;2023-06-19T10:45:25;10.50;;;6.47;;
19814;SDS011;10067;53.092;8.800;2023-06-19T10:47:53;11.10;;;6.93;;
19814;SDS011;10067;53.092;8.800;2023-06-19T10:50:21;8.50;;;6.80;;
19814;SDS011;10067;53.092;8.800;2023-06-19T10:52:48;8.15;;;7.35;;
19814;SDS011;10067;53.092;8.800;2023-06-19T10:55:14;8.35;;;7.65;;
19814;SDS011;10067;53.092;8.800;2023-06-19T10:57:44;14.63;;;9.82;;
19814;SDS011;10067;53.092;8.800;2023-06-19T11:00:11;12.50;;;9.90;;
19814;SDS011;10067;53.092;8.800;2023-06-19T11:02:38;10.68;;;9.65;;
19814;SDS011;10067;53.092;8.800;2023-06-19T11:05:08;12.10;;;11.10;;
19814;SDS011;10067;53.092;8.800;2023-06-19T11:07:36;14.02;;;12.90;;
19814;SDS011;10067;53.092;8.800;2023-06-19T11:10:03;15.32;;;13.73;;
19814;SDS011;10067;53.092;8.800;2023-06-19T11:12:30;16.45;;;13.57;;
19814;SDS011;10067;53.092;8.800;2023-06-19T11:14:57;15.68;;;14.27;;
19814;SDS011;10067;53.092;8.800;2023-06-19T11:17:23;13.23;;;12.13;;
19814;SDS011;10067;53.092;8.800;2023-06-19T11:19:49;14.65;;;12.45;;
19814;SDS011;10067;53.092;8.800;2023-06-19T11:22:16;15.35;;;13.88;;
19814;SDS011;10067;53.092;8.800;2023-06-19T11:24:44;13.60;;;12.38;;
19814;SDS011;10067;53.092;8.800;2023-06-19T11:27:17;10.02;;;9.05;;
19814;SDS011;10067;53.092;8.800;2023-06-19T11:29:44;14.43;;;8.20;;
19814;SDS011;10067;53.092;8.800;2023-06-19T11:32:12;8.93;;;5.13;;
19814;SDS011;10067;53.092;8.800;2023-06-19T11:34:39;5.85;;;5.13;;
19814;SDS011;10067;53.092;8.800;2023-06-19T11:37:11;7.60;;;5.82;;
19814;SDS011;10067;53.092;8.800;2023-06-19T11:39:37;7.82;;;7.03;;
19814;SDS011;10067;53.092;8.800;2023-06-19T11:42:06;11.60;;;8.35;;
19814;SDS011;10067;53.092;8.800;2023-06-19T11:44:32;10.95;;;9.85;;
19814;SDS011;10067;53.092;8.800;2023-06-19T11:46:59;14.00;;;8.85;;
19814;SDS011;10067;53.092;8.800;2023-06-19T11:49:26;13.68;;;8.90;;
19814;SDS011;10067;53.092;8.800;2023-06-19T11:51:53;10.23;;;8.50;;
19814;SDS011;10067;53.092;8.800;2023-06-19T11:54:19;11.13;;;9.40;;
19814;SDS011;10067;53.092;8.800;2023-06-19T11:56:46;11.07;;;8.40;;
19814;SDS011;10067;53.092;8.800;2023-06-19T11:59:14;10.60;;;7.72;;
19814;SDS011;10067;53.092;8.800;2023-06-19T12:01:41;11.20;;;9.20;;
19814;SDS011;10067;53.092;8.800;2023-06-19T12:04:07;10.63;;;9.63;;
19814;SDS011;10067;53.092;8.800;2023-06-19T12:06:33;12.88;;;10.57;;
19814;SDS011;10067;53.092;8.800;2023-06-19T12:09:00;17.35;;;14.85;;
19814;SDS011;10067;53.092;8.800;2023-06-19T12:11:28;14.73;;;11.75;;
19814;SDS011;10067;53.092;8.800;2023-06-19T12:13:54;13.35;;;10.60;;
19814;SDS011;10067;53.092;8.800;2023-06-19T12:16:22;14.18;;;10.00;;
19814;SDS011;10067;53.092;8.800;2023-06-19T12:18:48;11.00;;;8.30;;
19814;SDS011;10067;53.092;8.800;2023-06-19T12:21:15;8.35;;;7.20;;
19814;SDS011;10067;53.092;8.800;2023-06-19T12:23:41;7.45;;;6.47;;
19814;SDS011;10067;53.092;8.800;2023-06-19T12:26:07;7.55;;;6.80;;
19814;SDS011;10067;53.092;8.800;2023-06-19T12:28:34;7.03;;;6.40;;
19814;SDS011;10067;53.092;8.800;2023-06-19T12:31:00;7.32;;;6.63;;
19814;SDS011;10067;53.092;8.800;2023-06-19T12:33:29;7.30;;;6.60;;
19814;SDS011;10067;53.092;8.800;2023-06-19T12:35:58;6.50;;;5.82;;
19814;SDS011;10067;53.092;8.800;2023-06-19T12:38:24;8.05;;;6.53;;
19814;SDS011;10067;53.092;8.800;2023-06-19T12:40:51;8.60;;;6.72;;
19814;SDS011;10067;53.092;8.800;2023-06-19T12:43:18;7.50;;;6.45;;
19814;SDS011;10067;53.092;8.800;2023-06-19T12:45:44;7.15;;;6.45;;
19814;SDS011;10067;53.092;8.800;2023-06-19T12:48:11;10.82;;;6.82;;
19814;SDS011;10067;53.092;8.800;2023-06-19T12:50:39;13.98;;;12.15;;
19814;SDS011;10067;53.092;8.800;2023-06-19T12:53:05;9.45;;;8.15;;
19814;SDS011;10067;53.092;8.800;2023-06-19T12:55:31;6.85;;;6.15;;
19814;SDS011;10067;53.092;8.800;2023-06-19T12:57:58;7.88;;;6.60;;
19814;SDS011;10067;53.092;8.800;2023-06-19T13:00:24;9.13;;;6.13;;
19814;SDS011;10067;53.092;8.800;2023-06-19T13:02:51;6.90;;;6.00;;
19814;SDS011;10067;53.092;8.800;2023-06-19T13:05:17;9.02;;;7.00;;
19814;SDS011;10067;53.092;8.800;2023-06-19T13:07:45;7.88;;;6.28;;
19814;SDS011;10067;53.092;8.800;2023-06-19T13:10:11;11.68;;;6.55;;
19814;SDS011;10067;53.092;8.800;2023-06-19T13:12:41;10.00;;;7.38;;
19814;SDS011;10067;53.092;8.800;2023-06-19T13:15:07;7.90;;;7.00;;
19814;SDS011;10067;53.092;8.800;2023-06-19T13:17:34;9.40;;;6.78;;
19814;SDS011;10067;53.092;8.800;2023-06-19T13:20:01;8.07;;;7.32;;
19814;SDS011;10067;53.092;8.800;2023-06-19T13:22:29;8.55;;;7.70;;
19814;SDS011;10067;53.092;8.800;2023-06-19T13:24:57;7.78;;;6.68;;
19814;SDS011;10067;53.092;8.800;2023-06-19T13:27:26;8.10;;;6.85;;
19814;SDS011;10067;53.092;8.800;2023-06-19T13:29:53;7.15;;;6.45;;
19814;SDS011;10067;53.092;8.800;2023-06-19T13:32:20;10.15;;;9.15;;
19814;SDS011;10067;53.092;8.800;2023-06-19T13:34:46;6.88;;;6.18;;
19814;SDS011;10067;53.092;8.800;2023-06-19T13:37:12;8.85;;;6.47;;
19814;SDS011;10067;53.092;8.800;2023-06-19T13:39:39;10.50;;;6.30;;
19814;SDS011;10067;53.092;8.800;2023-06-19T13:42:07;9.55;;;7.00;;
19814;SDS011;10067;53.092;8.800;2023-06-19T13:44:34;10.93;;;6.80;;
19814;SDS011;10067;53.092;8.800;2023-06-19T13:47:04;8.93;;;7.40;;
19814;SDS011;10067;53.092;8.800;2023-06-19T13:49:31;8.18;;;7.47;;
19814;SDS011;10067;53.092;8.800;2023-06-19T13:51:57;9.05;;;7.15;;
19814;SDS011;10067;53.092;8.800;2023-06-19T13:54:24;8.35;;;7.55;;
19814;SDS011;10067;53.092;8.800;2023-06-19T13:56:50;8.18;;;7.30;;
19814;SDS011;10067;53.092;8.800;2023-06-19T13:59:21;7.13;;;6.43;;
19814;SDS011;10067;53.092;8.800;2023-06-19T14:01:48;7.10;;;6.50;;
19814;SDS011;10067;53.092;8.800;2023-06-19T14:04:20;6.68;;;6.07;;
19814;SDS011;10067;53.092;8.800;2023-06-19T14:06:53;6.63;;;6.07;;
19814;SDS011;10067;53.092;8.800;2023-06-19T14:09:20;11.40;;;7.03;;
19814;SDS011;10067;53.092;8.800;2023-06-19T14:11:47;10.07;;;9.15;;
19814;SDS011;10067;53.092;8.800;2023-06-19T14:14:13;9.43;;;8.55;;
19814;SDS011;10067;53.092;8.800;2023-06-19T14:16:42;8.93;;;8.13;;
19814;SDS011;10067;53.092;8.800;2023-06-19T14:19:10;8.73;;;7.93;;
19814;SDS011;10067;53.092;8.800;2023-06-19T14:21:37;9.05;;;7.53;;
19814;SDS011;10067;53.092;8.800;2023-06-19T14:24:04;8.65;;;7.32;;
19814;SDS011;10067;53.092;8.800;2023-06-19T14:26:30;12.00;;;8.48;;
19814;SDS011;10067;53.092;8.800;2023-06-19T14:28:57;8.13;;;7.30;;
19814;SDS011;10067;53.092;8.800;2023-06-19T14:31:24;7.97;;;7.22;;
19814;SDS011;10067;53.092;8.800;2023-06-19T14:33:52;10.10;;;7.07;;
19814;SDS011;10067;53.092;8.800;2023-06-19T14:36:18;7.53;;;6.82;;
19814;SDS011;10067;53.092;8.800;2023-06-19T14:38:45;9.18;;;7.65;;
19814;SDS011;10067;53.092;8.800;2023-06-19T14:41:11;20.50;;;18.20;;